sensor_id;sensor_type;location;lat;lon;timestamp;P1;durP1;ratioP1;P2;durP2;ratioP2
19016;SDS011;9641;51.494;6.670;2024-03-08T00:01:37;26.87;;;15.50;;
19016;SDS011;9641;51.494;6.670;2024-03-08T00:04:04;28.67;;;15.57;;
19016;SDS011;9641;51.494;6.670;2024-03-08T00:06:32;30.33;;;15.40;;
19016;SDS011;9641;51.494;6.670;2024-03-08T00:08:59;30.20;;;16.23;;
19016;SDS011;9641;51.494;6.670;2024-03-08T00:11:26;31.47;;;16.53;;
19016;SDS011;9641;51.494;6.670;2024-03-08T00:13:53;29.37;;;15.90;;
19016;SDS011;9641;51.494;6.670;2024-03-08T00:16:20;28.90;;;16.67;;
19016;SDS011;9641;51.494;6.670;2024-03-08T00:18:48;31.00;;;17.10;;
19016;SDS011;9641;51.494;6.670;2024-03-08T00:21:15;31.00;;;17.03;;
19016;SDS011;9641;51.494;6.670;2024-03-08T00:23:44;30.97;;;17.27;;
19016;SDS011;9641;51.494;6.670;2024-03-08T00:26:12;30.47;;;16.90;;
19016;SDS011;9641;51.494;6.670;2024-03-08T00:28:39;29.43;;;16.93;;
19016;SDS011;9641;51.494;6.670;2024-03-08T00:31:06;29.57;;;17.20;;
19016;SDS011;9641;51.494;6.670;2024-03-08T00:33:33;33.30;;;17.47;;
19016;SDS011;9641;51.494;6.670;2024-03-08T00:36:00;26.93;;;16.73;;
19016;SDS011;9641;51.494;6.670;2024-03-08T00:38:27;32.13;;;17.67;;
19016;SDS011;9641;51.494;6.670;2024-03-08T00:40:56;30.83;;;17.03;;
19016;SDS011;9641;51.494;6.670;2024-03-08T00:43:23;33.00;;;18.03;;
19016;SDS011;9641;51.494;6.670;2024-03-08T00:45:49;29.90;;;17.90;;
19016;SDS011;9641;51.494;6.670;2024-03-08T00:48:16;29.80;;;16.50;;
19016;SDS011;9641;51.494;6.670;2024-03-08T00:50:43;36.20;;;18.47;;
19016;SDS011;9641;51.494;6.670;2024-03-08T00:53:10;32.80;;;17.53;;
19016;SDS011;9641;51.494;6.670;2024-03-08T00:55:37;29.87;;;17.67;;
19016;SDS011;9641;51.494;6.670;2024-03-08T00:58:06;30.90;;;17.40;;
19016;SDS011;9641;51.494;6.670;2024-03-08T01:00:34;27.50;;;16.67;;
19016;SDS011;9641;51.494;6.670;2024-03-08T01:03:00;33.30;;;18.70;;
19016;SDS011;9641;51.494;6.670;2024-03-08T01:05:28;35.60;;;18.90;;
19016;SDS011;9641;51.494;6.670;2024-03-08T01:07:55;35.97;;;18.97;;
19016;SDS011;9641;51.494;6.670;2024-03-08T01:10:22;35.07;;;17.50;;
19016;SDS011;9641;51.494;6.670;2024-03-08T01:12:49;41.70;;;18.00;;
19016;SDS011;9641;51.494;6.670;2024-03-08T01:15:17;32.27;;;18.30;;
19016;SDS011;9641;51.494;6.670;2024-03-08T01:17:45;34.13;;;17.07;;
19016;SDS011;9641;51.494;6.670;2024-03-08T01:20:11;35.67;;;18.17;;
19016;SDS011;9641;51.494;6.670;2024-03-08T01:22:38;32.33;;;18.43;;
19016;SDS011;9641;51.494;6.670;2024-03-08T01:25:07;37.40;;;18.60;;
19016;SDS011;9641;51.494;6.670;2024-03-08T01:27:34;31.10;;;18.63;;
19016;SDS011;9641;51.494;6.670;2024-03-08T01:30:02;39.37;;;19.53;;
19016;SDS011;9641;51.494;6.670;2024-03-08T01:32:31;34.10;;;17.63;;
19016;SDS011;9641;51.494;6.670;2024-03-08T01:34:58;40.03;;;19.40;;
19016;SDS011;9641;51.494;6.670;2024-03-08T01:37:25;34.33;;;18.27;;
19016;SDS011;9641;51.494;6.670;2024-03-08T01:39:54;37.60;;;18.67;;
19016;SDS011;9641;51.494;6.670;2024-03-08T01:42:21;35.93;;;19.83;;
19016;SDS011;9641;51.494;6.670;2024-03-08T01:44:48;40.63;;;19.20;;
19016;SDS011;9641;51.494;6.670;2024-03-08T01:47:16;33.50;;;19.93;;
19016;SDS011;9641;51.494;6.670;2024-03-08T01:49:46;36.17;;;19.60;;
19016;SDS011;9641;51.494;6.670;2024-03-08T01:52:13;36.50;;;18.73;;
19016;SDS011;9641;51.494;6.670;2024-03-08T01:54:41;38.53;;;20.07;;
19016;SDS011;9641;51.494;6.670;2024-03-08T01:57:08;35.10;;;18.70;;
19016;SDS011;9641;51.494;6.670;2024-03-08T01:59:36;37.30;;;20.40;;
19016;SDS011;9641;51.494;6.670;2024-03-08T02:02:03;36.90;;;19.80;;
19016;SDS011;9641;51.494;6.670;2024-03-08T02:04:34;36.27;;;19.57;;
19016;SDS011;9641;51.494;6.670;2024-03-08T02:07:05;35.17;;;18.93;;
19016;SDS011;9641;51.494;6.670;2024-03-08T02:09:32;44.77;;;20.43;;
19016;SDS011;9641;51.494;6.670;2024-03-08T02:11:59;32.80;;;18.70;;
19016;SDS011;9641;51.494;6.670;2024-03-08T02:14:32;35.13;;;19.93;;
19016;SDS011;9641;51.494;6.670;2024-03-08T02:17:02;37.77;;;19.83;;
19016;SDS011;9641;51.494;6.670;2024-03-08T02:19:32;36.87;;;20.57;;
19016;SDS011;9641;51.494;6.670;2024-03-08T02:22:03;36.20;;;20.00;;
19016;SDS011;9641;51.494;6.670;2024-03-08T02:24:30;39.60;;;21.10;;
19016;SDS011;9641;51.494;6.670;2024-03-08T02:26:58;36.17;;;21.07;;
19016;SDS011;9641;51.494;6.670;2024-03-08T02:29:25;41.63;;;21.53;;
19016;SDS011;9641;51.494;6.670;2024-03-08T02:31:52;37.63;;;20.47;;
19016;SDS011;9641;51.494;6.670;2024-03-08T02:34:21;43.20;;;21.80;;
19016;SDS011;9641;51.494;6.670;2024-03-08T02:36:48;37.50;;;20.30;;
19016;SDS011;9641;51.494;6.670;2024-03-08T02:39:16;39.13;;;19.77;;
19016;SDS011;9641;51.494;6.670;2024-03-08T02:41:45;38.80;;;20.60;;
19016;SDS011;9641;51.494;6.670;2024-03-08T02:44:15;36.13;;;20.57;;
19016;SDS011;9641;51.494;6.670;2024-03-08T02:46:43;38.20;;;19.87;;
19016;SDS011;9641;51.494;6.670;2024-03-08T02:49:10;38.20;;;19.60;;
19016;SDS011;9641;51.494;6.670;2024-03-08T02:51:37;39.77;;;21.50;;
19016;SDS011;9641;51.494;6.670;2024-03-08T02:54:05;38.27;;;21.53;;
19016;SDS011;9641;51.494;6.670;2024-03-08T02:56:37;40.47;;;21.20;;
19016;SDS011;9641;51.494;6.670;2024-03-08T02:59:04;43.23;;;22.37;;
19016;SDS011;9641;51.494;6.670;2024-03-08T03:01:32;38.63;;;20.83;;
19016;SDS011;9641;51.494;6.670;2024-03-08T03:04:01;39.70;;;20.67;;
19016;SDS011;9641;51.494;6.670;2024-03-08T03:06:28;42.57;;;21.53;;
19016;SDS011;9641;51.494;6.670;2024-03-08T03:08:57;37.57;;;19.93;;
19016;SDS011;9641;51.494;6.670;2024-03-08T03:11:30;36.70;;;20.53;;
19016;SDS011;9641;51.494;6.670;2024-03-08T03:13:58;40.87;;;21.37;;
19016;SDS011;9641;51.494;6.670;2024-03-08T03:16:25;44.13;;;21.53;;
19016;SDS011;9641;51.494;6.670;2024-03-08T03:19:05;43.80;;;21.67;;
19016;SDS011;9641;51.494;6.670;2024-03-08T03:24:17;42.40;;;21.97;;
19016;SDS011;9641;51.494;6.670;2024-03-08T03:26:46;43.43;;;21.80;;
19016;SDS011;9641;51.494;6.670;2024-03-08T03:29:16;41.27;;;21.97;;
19016;SDS011;9641;51.494;6.670;2024-03-08T03:31:45;40.33;;;23.87;;
19016;SDS011;9641;51.494;6.670;2024-03-08T03:34:13;47.87;;;24.03;;
19016;SDS011;9641;51.494;6.670;2024-03-08T03:36:43;51.73;;;23.30;;
19016;SDS011;9641;51.494;6.670;2024-03-08T03:39:12;43.37;;;22.60;;
19016;SDS011;9641;51.494;6.670;2024-03-08T03:41:41;46.37;;;21.73;;
19016;SDS011;9641;51.494;6.670;2024-03-08T03:44:11;45.93;;;22.60;;
19016;SDS011;9641;51.494;6.670;2024-03-08T03:46:42;49.50;;;22.70;;
19016;SDS011;9641;51.494;6.670;2024-03-08T03:49:10;43.67;;;21.77;;
19016;SDS011;9641;51.494;6.670;2024-03-08T03:51:37;44.20;;;22.67;;
19016;SDS011;9641;51.494;6.670;2024-03-08T03:54:05;39.57;;;21.63;;
19016;SDS011;9641;51.494;6.670;2024-03-08T03:56:33;47.87;;;21.83;;
19016;SDS011;9641;51.494;6.670;2024-03-08T03:59:00;43.80;;;22.37;;
19016;SDS011;9641;51.494;6.670;2024-03-08T04:01:27;44.57;;;22.50;;
19016;SDS011;9641;51.494;6.670;2024-03-08T04:03:56;45.03;;;23.60;;
19016;SDS011;9641;51.494;6.670;2024-03-08T04:06:24;49.87;;;24.23;;
19016;SDS011;9641;51.494;6.670;2024-03-08T04:08:53;42.53;;;22.07;;
19016;SDS011;9641;51.494;6.670;2024-03-08T04:11:21;45.27;;;23.40;;
19016;SDS011;9641;51.494;6.670;2024-03-08T04:13:50;46.03;;;22.70;;
19016;SDS011;9641;51.494;6.670;2024-03-08T04:16:19;40.03;;;21.80;;
19016;SDS011;9641;51.494;6.670;2024-03-08T04:18:46;38.07;;;21.00;;
19016;SDS011;9641;51.494;6.670;2024-03-08T04:21:14;43.20;;;22.60;;
19016;SDS011;9641;51.494;6.670;2024-03-08T04:23:42;46.90;;;21.90;;
19016;SDS011;9641;51.494;6.670;2024-03-08T04:26:10;45.47;;;22.57;;
19016;SDS011;9641;51.494;6.670;2024-03-08T04:28:38;42.80;;;22.43;;
19016;SDS011;9641;51.494;6.670;2024-03-08T04:31:07;43.30;;;23.00;;
19016;SDS011;9641;51.494;6.670;2024-03-08T04:33:34;40.27;;;22.03;;
19016;SDS011;9641;51.494;6.670;2024-03-08T04:36:02;42.90;;;21.17;;
19016;SDS011;9641;51.494;6.670;2024-03-08T04:38:31;48.60;;;22.23;;
19016;SDS011;9641;51.494;6.670;2024-03-08T04:40:58;46.20;;;22.00;;
19016;SDS011;9641;51.494;6.670;2024-03-08T04:43:27;41.43;;;21.90;;
19016;SDS011;9641;51.494;6.670;2024-03-08T04:45:55;45.37;;;23.63;;
19016;SDS011;9641;51.494;6.670;2024-03-08T04:48:22;47.57;;;23.30;;
19016;SDS011;9641;51.494;6.670;2024-03-08T04:50:52;45.23;;;22.40;;
19016;SDS011;9641;51.494;6.670;2024-03-08T04:53:19;43.23;;;21.53;;
19016;SDS011;9641;51.494;6.670;2024-03-08T04:55:47;43.77;;;22.70;;
19016;SDS011;9641;51.494;6.670;2024-03-08T04:58:15;44.20;;;21.80;;
19016;SDS011;9641;51.494;6.670;2024-03-08T05:00:42;45.97;;;21.70;;
19016;SDS011;9641;51.494;6.670;2024-03-08T05:03:09;47.10;;;23.77;;
19016;SDS011;9641;51.494;6.670;2024-03-08T05:05:36;44.00;;;23.20;;
19016;SDS011;9641;51.494;6.670;2024-03-08T05:08:04;49.13;;;23.90;;
19016;SDS011;9641;51.494;6.670;2024-03-08T05:10:32;47.07;;;23.53;;
19016;SDS011;9641;51.494;6.670;2024-03-08T05:13:00;53.10;;;24.47;;
19016;SDS011;9641;51.494;6.670;2024-03-08T05:15:30;47.17;;;23.33;;
19016;SDS011;9641;51.494;6.670;2024-03-08T05:18:00;50.50;;;23.30;;
19016;SDS011;9641;51.494;6.670;2024-03-08T05:20:27;43.03;;;22.20;;
19016;SDS011;9641;51.494;6.670;2024-03-08T05:22:56;46.40;;;23.33;;
19016;SDS011;9641;51.494;6.670;2024-03-08T05:25:29;47.13;;;23.97;;
19016;SDS011;9641;51.494;6.670;2024-03-08T05:27:58;48.17;;;23.83;;
19016;SDS011;9641;51.494;6.670;2024-03-08T05:30:27;51.90;;;23.53;;
19016;SDS011;9641;51.494;6.670;2024-03-08T05:32:55;43.53;;;23.73;;
19016;SDS011;9641;51.494;6.670;2024-03-08T05:35:22;53.93;;;24.33;;
19016;SDS011;9641;51.494;6.670;2024-03-08T05:37:49;56.53;;;26.80;;
19016;SDS011;9641;51.494;6.670;2024-03-08T05:40:17;49.40;;;24.33;;
19016;SDS011;9641;51.494;6.670;2024-03-08T05:42:44;49.80;;;23.90;;
19016;SDS011;9641;51.494;6.670;2024-03-08T05:45:13;48.70;;;23.37;;
19016;SDS011;9641;51.494;6.670;2024-03-08T05:47:40;51.77;;;23.93;;
19016;SDS011;9641;51.494;6.670;2024-03-08T05:50:08;49.80;;;23.83;;
19016;SDS011;9641;51.494;6.670;2024-03-08T05:52:37;49.70;;;23.93;;
19016;SDS011;9641;51.494;6.670;2024-03-08T05:55:05;52.13;;;24.20;;
19016;SDS011;9641;51.494;6.670;2024-03-08T05:57:35;54.13;;;25.27;;
19016;SDS011;9641;51.494;6.670;2024-03-08T06:00:07;46.37;;;22.70;;
19016;SDS011;9641;51.494;6.670;2024-03-08T06:02:40;51.47;;;24.33;;
19016;SDS011;9641;51.494;6.670;2024-03-08T06:05:12;49.43;;;24.40;;
19016;SDS011;9641;51.494;6.670;2024-03-08T06:07:40;48.00;;;24.47;;
19016;SDS011;9641;51.494;6.670;2024-03-08T06:10:08;53.33;;;24.93;;
19016;SDS011;9641;51.494;6.670;2024-03-08T06:12:45;57.63;;;25.90;;
19016;SDS011;9641;51.494;6.670;2024-03-08T06:15:13;50.87;;;24.87;;
19016;SDS011;9641;51.494;6.670;2024-03-08T06:17:49;51.10;;;24.87;;
19016;SDS011;9641;51.494;6.670;2024-03-08T06:20:18;49.77;;;24.40;;
19016;SDS011;9641;51.494;6.670;2024-03-08T06:22:45;51.30;;;24.33;;
19016;SDS011;9641;51.494;6.670;2024-03-08T06:25:12;51.97;;;25.97;;
19016;SDS011;9641;51.494;6.670;2024-03-08T06:27:40;51.97;;;24.07;;
19016;SDS011;9641;51.494;6.670;2024-03-08T06:30:08;50.77;;;23.57;;
19016;SDS011;9641;51.494;6.670;2024-03-08T06:32:36;52.33;;;23.97;;
19016;SDS011;9641;51.494;6.670;2024-03-08T06:35:05;55.60;;;25.70;;
19016;SDS011;9641;51.494;6.670;2024-03-08T06:37:33;62.13;;;25.10;;
19016;SDS011;9641;51.494;6.670;2024-03-08T06:40:00;52.23;;;24.87;;
19016;SDS011;9641;51.494;6.670;2024-03-08T06:42:28;52.57;;;23.83;;
19016;SDS011;9641;51.494;6.670;2024-03-08T06:44:58;51.80;;;23.60;;
19016;SDS011;9641;51.494;6.670;2024-03-08T06:47:29;51.57;;;24.17;;
19016;SDS011;9641;51.494;6.670;2024-03-08T06:50:00;48.83;;;23.60;;
19016;SDS011;9641;51.494;6.670;2024-03-08T06:52:37;51.00;;;24.37;;
19016;SDS011;9641;51.494;6.670;2024-03-08T06:55:07;51.73;;;23.63;;
19016;SDS011;9641;51.494;6.670;2024-03-08T06:57:37;53.40;;;23.57;;
19016;SDS011;9641;51.494;6.670;2024-03-08T07:00:06;47.10;;;22.97;;
19016;SDS011;9641;51.494;6.670;2024-03-08T07:02:34;56.67;;;26.37;;
19016;SDS011;9641;51.494;6.670;2024-03-08T07:05:02;46.97;;;24.07;;
19016;SDS011;9641;51.494;6.670;2024-03-08T07:07:32;53.27;;;24.13;;
19016;SDS011;9641;51.494;6.670;2024-03-08T07:10:00;48.33;;;24.37;;
19016;SDS011;9641;51.494;6.670;2024-03-08T07:12:27;53.50;;;26.03;;
19016;SDS011;9641;51.494;6.670;2024-03-08T07:15:00;51.37;;;24.50;;
19016;SDS011;9641;51.494;6.670;2024-03-08T07:17:32;51.50;;;25.63;;
19016;SDS011;9641;51.494;6.670;2024-03-08T07:20:05;61.93;;;24.87;;
19016;SDS011;9641;51.494;6.670;2024-03-08T07:22:38;51.93;;;23.67;;
19016;SDS011;9641;51.494;6.670;2024-03-08T07:25:06;50.30;;;24.60;;
19016;SDS011;9641;51.494;6.670;2024-03-08T07:27:46;53.70;;;24.17;;
19016;SDS011;9641;51.494;6.670;2024-03-08T07:30:14;49.73;;;23.97;;
19016;SDS011;9641;51.494;6.670;2024-03-08T07:33:04;54.07;;;25.00;;
19016;SDS011;9641;51.494;6.670;2024-03-08T07:35:30;50.23;;;23.97;;
19016;SDS011;9641;51.494;6.670;2024-03-08T07:38:00;50.20;;;25.07;;
19016;SDS011;9641;51.494;6.670;2024-03-08T07:40:29;49.50;;;25.87;;
19016;SDS011;9641;51.494;6.670;2024-03-08T07:42:57;45.97;;;24.30;;
19016;SDS011;9641;51.494;6.670;2024-03-08T07:45:25;50.90;;;24.87;;
19016;SDS011;9641;51.494;6.670;2024-03-08T07:47:52;47.17;;;23.43;;
19016;SDS011;9641;51.494;6.670;2024-03-08T07:50:22;48.50;;;23.77;;
19016;SDS011;9641;51.494;6.670;2024-03-08T07:52:52;56.43;;;25.00;;
19016;SDS011;9641;51.494;6.670;2024-03-08T07:55:21;47.13;;;23.13;;
19016;SDS011;9641;51.494;6.670;2024-03-08T07:57:49;45.33;;;23.90;;
19016;SDS011;9641;51.494;6.670;2024-03-08T08:00:16;43.73;;;23.53;;
19016;SDS011;9641;51.494;6.670;2024-03-08T08:02:44;48.97;;;23.23;;
19016;SDS011;9641;51.494;6.670;2024-03-08T08:05:14;47.23;;;22.57;;
19016;SDS011;9641;51.494;6.670;2024-03-08T08:07:43;41.60;;;22.03;;
19016;SDS011;9641;51.494;6.670;2024-03-08T08:10:12;39.97;;;21.60;;
19016;SDS011;9641;51.494;6.670;2024-03-08T08:12:45;41.27;;;21.67;;
19016;SDS011;9641;51.494;6.670;2024-03-08T08:15:12;44.43;;;21.97;;
19016;SDS011;9641;51.494;6.670;2024-03-08T08:17:40;45.90;;;22.83;;
19016;SDS011;9641;51.494;6.670;2024-03-08T08:20:08;45.27;;;22.33;;
19016;SDS011;9641;51.494;6.670;2024-03-08T08:22:37;46.50;;;22.27;;
19016;SDS011;9641;51.494;6.670;2024-03-08T08:25:05;40.00;;;20.60;;
19016;SDS011;9641;51.494;6.670;2024-03-08T08:27:32;47.33;;;21.17;;
19016;SDS011;9641;51.494;6.670;2024-03-08T08:30:03;46.33;;;21.87;;
19016;SDS011;9641;51.494;6.670;2024-03-08T08:32:33;48.13;;;21.63;;
19016;SDS011;9641;51.494;6.670;2024-03-08T08:35:01;47.23;;;21.93;;
19016;SDS011;9641;51.494;6.670;2024-03-08T08:37:29;41.83;;;20.77;;
19016;SDS011;9641;51.494;6.670;2024-03-08T08:39:57;41.80;;;21.77;;
19016;SDS011;9641;51.494;6.670;2024-03-08T08:42:30;37.57;;;20.43;;
19016;SDS011;9641;51.494;6.670;2024-03-08T08:45:07;40.93;;;20.93;;
19016;SDS011;9641;51.494;6.670;2024-03-08T08:47:35;37.53;;;20.40;;
19016;SDS011;9641;51.494;6.670;2024-03-08T08:50:02;39.50;;;20.50;;
19016;SDS011;9641;51.494;6.670;2024-03-08T08:52:30;42.43;;;20.17;;
19016;SDS011;9641;51.494;6.670;2024-03-08T08:54:57;35.50;;;19.27;;
19016;SDS011;9641;51.494;6.670;2024-03-08T08:57:24;41.43;;;19.83;;
19016;SDS011;9641;51.494;6.670;2024-03-08T08:59:52;37.70;;;19.80;;
19016;SDS011;9641;51.494;6.670;2024-03-08T09:02:21;42.53;;;19.57;;
19016;SDS011;9641;51.494;6.670;2024-03-08T09:04:52;40.23;;;19.93;;
19016;SDS011;9641;51.494;6.670;2024-03-08T09:07:19;36.50;;;20.67;;
19016;SDS011;9641;51.494;6.670;2024-03-08T09:09:47;36.37;;;19.43;;
19016;SDS011;9641;51.494;6.670;2024-03-08T09:12:14;42.40;;;20.00;;
19016;SDS011;9641;51.494;6.670;2024-03-08T09:14:41;37.17;;;19.13;;
19016;SDS011;9641;51.494;6.670;2024-03-08T09:17:08;36.47;;;18.27;;
19016;SDS011;9641;51.494;6.670;2024-03-08T09:19:36;36.87;;;19.60;;
19016;SDS011;9641;51.494;6.670;2024-03-08T09:22:05;39.17;;;19.27;;
19016;SDS011;9641;51.494;6.670;2024-03-08T09:24:32;37.33;;;18.13;;
19016;SDS011;9641;51.494;6.670;2024-03-08T09:26:59;43.83;;;19.13;;
19016;SDS011;9641;51.494;6.670;2024-03-08T09:29:27;35.00;;;18.83;;
19016;SDS011;9641;51.494;6.670;2024-03-08T09:31:57;34.83;;;17.77;;
19016;SDS011;9641;51.494;6.670;2024-03-08T09:34:24;34.00;;;19.23;;
19016;SDS011;9641;51.494;6.670;2024-03-08T09:36:53;33.93;;;18.17;;
19016;SDS011;9641;51.494;6.670;2024-03-08T09:39:26;31.07;;;18.67;;
19016;SDS011;9641;51.494;6.670;2024-03-08T09:41:54;33.90;;;19.03;;
19016;SDS011;9641;51.494;6.670;2024-03-08T09:44:23;35.20;;;18.03;;
19016;SDS011;9641;51.494;6.670;2024-03-08T09:46:50;30.60;;;18.00;;
19016;SDS011;9641;51.494;6.670;2024-03-08T09:49:24;35.20;;;18.10;;
19016;SDS011;9641;51.494;6.670;2024-03-08T09:51:52;32.33;;;18.63;;
19016;SDS011;9641;51.494;6.670;2024-03-08T09:54:20;34.40;;;18.57;;
19016;SDS011;9641;51.494;6.670;2024-03-08T09:56:49;33.83;;;18.53;;
19016;SDS011;9641;51.494;6.670;2024-03-08T09:59:22;33.30;;;17.30;;
19016;SDS011;9641;51.494;6.670;2024-03-08T10:02:13;37.33;;;18.80;;
19016;SDS011;9641;51.494;6.670;2024-03-08T10:04:43;31.93;;;18.87;;
19016;SDS011;9641;51.494;6.670;2024-03-08T10:07:19;35.80;;;19.63;;
19016;SDS011;9641;51.494;6.670;2024-03-08T10:09:47;33.23;;;18.40;;
19016;SDS011;9641;51.494;6.670;2024-03-08T10:12:19;33.27;;;18.77;;
19016;SDS011;9641;51.494;6.670;2024-03-08T10:14:46;35.13;;;18.17;;
19016;SDS011;9641;51.494;6.670;2024-03-08T10:17:19;35.00;;;18.30;;
19016;SDS011;9641;51.494;6.670;2024-03-08T10:19:50;34.67;;;17.23;;
19016;SDS011;9641;51.494;6.670;2024-03-08T10:22:19;34.97;;;18.10;;
19016;SDS011;9641;51.494;6.670;2024-03-08T10:24:47;31.67;;;17.93;;
19016;SDS011;9641;51.494;6.670;2024-03-08T10:27:14;31.03;;;17.07;;
19016;SDS011;9641;51.494;6.670;2024-03-08T10:29:46;28.03;;;17.17;;
19016;SDS011;9641;51.494;6.670;2024-03-08T10:32:15;31.50;;;17.63;;
19016;SDS011;9641;51.494;6.670;2024-03-08T10:34:42;32.50;;;17.20;;
19016;SDS011;9641;51.494;6.670;2024-03-08T10:37:13;27.27;;;17.03;;
19016;SDS011;9641;51.494;6.670;2024-03-08T10:39:45;30.30;;;16.63;;
19016;SDS011;9641;51.494;6.670;2024-03-08T10:42:18;29.90;;;17.20;;
19016;SDS011;9641;51.494;6.670;2024-03-08T10:44:53;30.23;;;18.23;;
19016;SDS011;9641;51.494;6.670;2024-03-08T10:47:33;33.57;;;17.37;;
19016;SDS011;9641;51.494;6.670;2024-03-08T10:50:07;30.83;;;16.80;;
19016;SDS011;9641;51.494;6.670;2024-03-08T10:52:51;32.93;;;16.43;;
19016;SDS011;9641;51.494;6.670;2024-03-08T10:55:34;39.00;;;18.63;;
19016;SDS011;9641;51.494;6.670;2024-03-08T10:58:08;31.97;;;17.87;;
19016;SDS011;9641;51.494;6.670;2024-03-08T11:00:36;27.73;;;16.23;;
19016;SDS011;9641;51.494;6.670;2024-03-08T11:03:06;29.30;;;17.07;;
19016;SDS011;9641;51.494;6.670;2024-03-08T11:05:57;29.30;;;17.43;;
19016;SDS011;9641;51.494;6.670;2024-03-08T11:08:31;27.03;;;17.17;;
19016;SDS011;9641;51.494;6.670;2024-03-08T11:11:05;29.53;;;16.07;;
19016;SDS011;9641;51.494;6.670;2024-03-08T11:13:53;23.87;;;15.80;;
19016;SDS011;9641;51.494;6.670;2024-03-08T11:16:43;27.53;;;16.23;;
19016;SDS011;9641;51.494;6.670;2024-03-08T11:19:23;29.33;;;16.57;;
19016;SDS011;9641;51.494;6.670;2024-03-08T11:22:03;29.23;;;16.47;;
19016;SDS011;9641;51.494;6.670;2024-03-08T11:24:52;29.43;;;16.73;;
19016;SDS011;9641;51.494;6.670;2024-03-08T11:27:53;28.17;;;17.40;;
19016;SDS011;9641;51.494;6.670;2024-03-08T11:30:43;27.90;;;17.30;;
19016;SDS011;9641;51.494;6.670;2024-03-08T11:33:18;28.07;;;17.80;;
19016;SDS011;9641;51.494;6.670;2024-03-08T11:35:49;34.07;;;19.10;;
19016;SDS011;9641;51.494;6.670;2024-03-08T11:38:16;28.87;;;16.60;;
19016;SDS011;9641;51.494;6.670;2024-03-08T11:40:46;26.20;;;15.97;;
19016;SDS011;9641;51.494;6.670;2024-03-08T11:43:17;25.60;;;16.63;;
19016;SDS011;9641;51.494;6.670;2024-03-08T11:45:45;23.80;;;16.70;;
19016;SDS011;9641;51.494;6.670;2024-03-08T11:48:12;21.37;;;14.43;;
19016;SDS011;9641;51.494;6.670;2024-03-08T11:50:40;27.33;;;16.67;;
19016;SDS011;9641;51.494;6.670;2024-03-08T11:53:19;22.73;;;15.37;;
19016;SDS011;9641;51.494;6.670;2024-03-08T11:55:53;25.23;;;15.70;;
19016;SDS011;9641;51.494;6.670;2024-03-08T11:58:33;25.77;;;16.87;;
19016;SDS011;9641;51.494;6.670;2024-03-08T12:01:05;25.47;;;16.83;;
19016;SDS011;9641;51.494;6.670;2024-03-08T12:03:48;26.23;;;17.07;;
19016;SDS011;9641;51.494;6.670;2024-03-08T12:06:27;28.20;;;16.77;;
19016;SDS011;9641;51.494;6.670;2024-03-08T12:09:08;23.07;;;16.00;;
19016;SDS011;9641;51.494;6.670;2024-03-08T12:11:41;23.83;;;16.03;;
19016;SDS011;9641;51.494;6.670;2024-03-08T12:14:17;25.43;;;15.73;;
19016;SDS011;9641;51.494;6.670;2024-03-08T12:16:49;26.63;;;16.17;;
19016;SDS011;9641;51.494;6.670;2024-03-08T12:19:26;24.03;;;15.90;;
19016;SDS011;9641;51.494;6.670;2024-03-08T12:22:14;25.35;;;17.08;;
19016;SDS011;9641;51.494;6.670;2024-03-08T12:25:02;27.67;;;15.63;;
19016;SDS011;9641;51.494;6.670;2024-03-08T12:27:31;24.47;;;16.00;;
19016;SDS011;9641;51.494;6.670;2024-03-08T12:30:21;27.73;;;16.27;;
19016;SDS011;9641;51.494;6.670;2024-03-08T12:32:56;24.13;;;15.60;;
19016;SDS011;9641;51.494;6.670;2024-03-08T12:35:25;25.00;;;16.20;;
19016;SDS011;9641;51.494;6.670;2024-03-08T12:37:56;23.80;;;15.53;;
19016;SDS011;9641;51.494;6.670;2024-03-08T12:40:31;24.87;;;15.50;;
19016;SDS011;9641;51.494;6.670;2024-03-08T12:42:59;28.07;;;16.53;;
19016;SDS011;9641;51.494;6.670;2024-03-08T12:45:30;24.83;;;15.73;;
19016;SDS011;9641;51.494;6.670;2024-03-08T12:47:58;21.63;;;15.03;;
19016;SDS011;9641;51.494;6.670;2024-03-08T12:50:28;25.27;;;14.10;;
19016;SDS011;9641;51.494;6.670;2024-03-08T12:52:57;25.95;;;14.32;;
19016;SDS011;9641;51.494;6.670;2024-03-08T12:55:24;21.30;;;13.90;;
19016;SDS011;9641;51.494;6.670;2024-03-08T12:57:52;24.48;;;14.50;;
19016;SDS011;9641;51.494;6.670;2024-03-08T13:00:20;22.20;;;14.90;;
19016;SDS011;9641;51.494;6.670;2024-03-08T13:02:52;18.83;;;13.65;;
19016;SDS011;9641;51.494;6.670;2024-03-08T13:05:20;20.45;;;14.02;;
19016;SDS011;9641;51.494;6.670;2024-03-08T13:07:52;19.90;;;13.70;;
19016;SDS011;9641;51.494;6.670;2024-03-08T13:10:39;21.58;;;14.35;;
19016;SDS011;9641;51.494;6.670;2024-03-08T13:13:08;20.33;;;14.43;;
19016;SDS011;9641;51.494;6.670;2024-03-08T13:15:36;22.20;;;13.85;;
19016;SDS011;9641;51.494;6.670;2024-03-08T13:18:05;20.50;;;14.27;;
19016;SDS011;9641;51.494;6.670;2024-03-08T13:20:34;21.08;;;14.23;;
19016;SDS011;9641;51.494;6.670;2024-03-08T13:23:03;19.13;;;12.60;;
19016;SDS011;9641;51.494;6.670;2024-03-08T13:25:31;19.70;;;13.40;;
19016;SDS011;9641;51.494;6.670;2024-03-08T13:28:00;18.55;;;12.13;;
19016;SDS011;9641;51.494;6.670;2024-03-08T13:30:28;20.75;;;12.57;;
19016;SDS011;9641;51.494;6.670;2024-03-08T13:32:56;17.40;;;12.00;;
19016;SDS011;9641;51.494;6.670;2024-03-08T13:35:24;17.40;;;11.95;;
19016;SDS011;9641;51.494;6.670;2024-03-08T13:37:53;16.85;;;11.70;;
19016;SDS011;9641;51.494;6.670;2024-03-08T13:40:20;16.77;;;11.15;;
19016;SDS011;9641;51.494;6.670;2024-03-08T13:42:48;17.13;;;11.95;;
19016;SDS011;9641;51.494;6.670;2024-03-08T13:45:15;14.82;;;10.77;;
19016;SDS011;9641;51.494;6.670;2024-03-08T13:47:48;12.38;;;9.07;;
19016;SDS011;9641;51.494;6.670;2024-03-08T13:50:17;13.32;;;8.82;;
19016;SDS011;9641;51.494;6.670;2024-03-08T13:52:48;10.93;;;8.45;;
19016;SDS011;9641;51.494;6.670;2024-03-08T13:55:20;9.88;;;8.10;;
19016;SDS011;9641;51.494;6.670;2024-03-08T13:57:47;12.25;;;7.80;;
19016;SDS011;9641;51.494;6.670;2024-03-08T14:00:16;10.82;;;7.88;;
19016;SDS011;9641;51.494;6.670;2024-03-08T14:02:53;9.95;;;7.28;;
19016;SDS011;9641;51.494;6.670;2024-03-08T14:05:20;8.85;;;7.32;;
19016;SDS011;9641;51.494;6.670;2024-03-08T14:07:49;9.80;;;7.25;;
19016;SDS011;9641;51.494;6.670;2024-03-08T14:10:19;9.32;;;7.35;;
19016;SDS011;9641;51.494;6.670;2024-03-08T14:12:48;12.73;;;7.78;;
19016;SDS011;9641;51.494;6.670;2024-03-08T14:15:15;11.15;;;7.63;;
19016;SDS011;9641;51.494;6.670;2024-03-08T14:17:42;9.18;;;7.28;;
19016;SDS011;9641;51.494;6.670;2024-03-08T14:20:11;9.65;;;7.10;;
19016;SDS011;9641;51.494;6.670;2024-03-08T14:22:39;12.07;;;6.75;;
19016;SDS011;9641;51.494;6.670;2024-03-08T14:25:12;8.07;;;6.32;;
19016;SDS011;9641;51.494;6.670;2024-03-08T14:27:43;7.70;;;6.32;;
19016;SDS011;9641;51.494;6.670;2024-03-08T14:30:10;9.73;;;6.60;;
19016;SDS011;9641;51.494;6.670;2024-03-08T14:32:53;12.50;;;7.45;;
19016;SDS011;9641;51.494;6.670;2024-03-08T14:35:20;7.35;;;5.75;;
19016;SDS011;9641;51.494;6.670;2024-03-08T14:37:48;8.68;;;6.15;;
19016;SDS011;9641;51.494;6.670;2024-03-08T14:40:17;11.93;;;6.38;;
19016;SDS011;9641;51.494;6.670;2024-03-08T14:42:47;7.30;;;5.82;;
19016;SDS011;9641;51.494;6.670;2024-03-08T14:45:15;8.85;;;6.55;;
19016;SDS011;9641;51.494;6.670;2024-03-08T14:47:44;7.45;;;5.90;;
19016;SDS011;9641;51.494;6.670;2024-03-08T14:50:15;9.18;;;6.60;;
19016;SDS011;9641;51.494;6.670;2024-03-08T14:52:42;10.25;;;6.15;;
19016;SDS011;9641;51.494;6.670;2024-03-08T14:55:10;10.88;;;6.50;;